Lucas Lucero

Olheiro-Chefe - Racing
23 Abr 2028
Domingo
Processo

Personalidade

Adaptabilidade (4) Ambição (16) Controvérsia (18) Lealdade (1) Pressão (2) Profissionalismo (8) Espírito Esportivo (8) Temperamento (20)

Perfil

Estilo de Treinamento Democrático
Licença Continental Pro
Determinação 5
Gestão de Pessoas 3
Motivação 6
Disciplina 5
Satisfação no Trabalho
100%
Fadiga
0%
Função Olheiro-Chefe
Salário 14.7K p/s
Contrato 14.03.2029

Desempenho

Comportamento Bom
Eficácia do Treinamento
15%
Desenvolvimento do Jogador
25%
Prevenção de Lesões
20%
Implementação Tática
15%

Monitorando agora

152
Jogador Clube Status Habilidade Confiança Observado Última observação Último voto
Nahuel Acosta Progreso Ativo 104 / 88 40% 1 27.11.2026 -
Tomás Ferreyra Defensores Unidos Ativo 99 / 99 40% 1 27.11.2026 -
Ignacio Yepez Cerrito Ativo 111 / 114 40% 1 26.11.2026 -
Facundo Perdomo Liverpool Montevideo Ativo 106 / 100 40% 3 25.11.2026 -
Facundo Ardiles Estudiantes Ativo 118 / 103 40% 2 25.11.2026 -
Luis Olivera Defensores Unidos Ativo 118 / 95 40% 1 23.11.2026 -
Juan Manuel Carrizo Chaco For Ever Ativo 100 / 104 40% 1 22.11.2026 -
Santiago Gutiérrez Alvarado Ativo 111 / 111 40% 1 22.11.2026 -
Gali Balanta Deportes Tolima Ativo 85 / 104 40% 2 20.11.2026 -
Augusto Gallo Fenix Ativo 94 / 108 40% 2 20.11.2026 -
Martín Sarrafiore O'Higgins Ativo 122 / 107 40% 3 17.11.2026 -
Santiago Ramírez Deportivo Maldonado Ativo 90 / 91 40% 1 17.11.2026 -
Franco Troyansky Audax Italiano Ativo 102 / 112 40% 1 16.11.2026 -
Lawrence Ennali Houston Dynamo Ativo 103 / 120 40% 1 16.11.2026 -
Lucas Meuli Unión de Santa Fe Ativo 93 / 109 40% 2 15.11.2026 -
Agustín Chopitea Colon Ativo 97 / 108 40% 1 14.11.2026 -
Sebastián Tormo Deportivo Maldonado Ativo 87 / 90 40% 1 14.11.2026 -
Anderson Brum Tacuarembo Ativo 86 / 86 40% 1 13.11.2026 -
Facundo Melillán Güemes Ativo 112 / 121 40% 1 13.11.2026 -
Adrián Acosta Portuguesa Ativo 83 / 92 40% 1 13.11.2026 -
Federico Viera Artigas Ativo 63 / 77 40% 2 12.11.2026 -
Fernando Camarda Central Espanol Ativo 105 / 109 40% 1 11.11.2026 -
Lisandro Montenegro Chacarita Juniors Ativo 101 / 125 40% 1 11.11.2026 -
Nicolás Henry Tristán Suárez Ativo 107 / 107 40% 1 10.11.2026 -
Maicol Ferreira Danubio Ativo 108 / 108 40% 1 09.11.2026 -
Elías Ayala Madryn Ativo 100 / 107 40% 1 09.11.2026 -
Jonathan Villagra Colo-Colo Ativo 111 / 111 40% 1 08.11.2026 -
Diego Mastrángelo Tristán Suárez Ativo 110 / 107 40% 1 08.11.2026 -
Miguel Silva Carabobo Ativo 106 / 97 40% 3 07.11.2026 -
Matías Vera Nueva Chicago Ativo 109 / 93 40% 1 07.11.2026 -
Agustín Aguirre Boston River Ativo 98 / 96 40% 1 07.11.2026 -
Fabián Palomino Ayacucho Ativo 89 / 84 40% 1 06.11.2026 -
Lucas Ymbert Uruguay Montevideo Ativo 95 / 87 40% 1 06.11.2026 -
Guido Sosa Atenas Ativo 91 / 113 40% 2 05.11.2026 -
Luciano Jachfe Nueva Chicago Ativo 116 / 125 40% 3 05.11.2026 -
Braian Aranda Agropecuario Argentino Ativo 109 / 123 40% 1 05.11.2026 -
Yael Delgado Queretaro Ativo 64 / 69 40% 1 04.11.2026 -
Juan Moreno La Luz Ativo 106 / 128 40% 2 03.11.2026 -
Aldo Pérez Guarani Ativo 100 / 121 40% 1 03.11.2026 -
Nahuel Pezzini Arsenal Ativo 120 / 120 40% 1 01.11.2026 -
Diego Villalba Plaza Colonia Ativo 107 / 87 40% 1 01.11.2026 -
Francisco Funes Los Andes Ativo 106 / 86 40% 1 01.11.2026 -
Ezequiel Olivera Liverpool Montevideo Ativo 105 / 116 40% 2 31.10.2026 -
Matías Bazzi Talleres Ativo 105 / 111 40% 1 31.10.2026 -
Diego Carreño O'Higgins Ativo 79 / 95 40% 2 30.10.2026 -
Facundo Silvera Montevideo City Torque Ativo 102 / 93 40% 3 30.10.2026 -
Facundo Silvestre Uruguay Montevideo Ativo 91 / 105 40% 1 30.10.2026 -
Gonzalo Silva Progreso Ativo 97 / 115 40% 2 28.10.2026 -
Fernando Abarzúa San Luis Ativo 73 / 73 40% 1 28.10.2026 -
Bastián Yáñez O'Higgins Ativo 114 / 104 40% 1 26.10.2026 -
Camilo Machado Madryn Ativo 111 / 117 40% 1 26.10.2026 -
Nahuel Galardi Maipú Ativo 97 / 117 40% 2 25.10.2026 -
Santiago Briñone San Martín Ativo 100 / 121 40% 1 24.10.2026 -
Emiliano Bermúdez Oriental Ativo 96 / 104 40% 2 23.10.2026 -
Ángel Espínola Sportivo Luqueno Ativo 105 / 94 40% 1 23.10.2026 -
Fabrizio Correa Juventud Ativo 127 / 108 40% 1 22.10.2026 -
Cristhofer Mesías Universidad de Concepcion Ativo 107 / 92 40% 1 21.10.2026 -
Ignacio Rodríguez Central Espanol Ativo 100 / 119 40% 1 21.10.2026 -
Ignacio Núñez Union Espanola Ativo 99 / 94 40% 1 20.10.2026 -
Pedro Silva Torrejón Gimnasia La Plata Ativo 128 / 111 40% 1 19.10.2026 -
Yamil García Rampla Juniors Ativo 94 / 95 40% 1 19.10.2026 -
Jeremías Rodríguez Puch Atlanta Ativo 97 / 116 40% 1 18.10.2026 -
Diego Rosa Fenix Ativo 95 / 99 40% 1 18.10.2026 -
Matías Bergara Nueva Chicago Ativo 120 / 127 40% 1 16.10.2026 -
Milton Gerez Güemes Ativo 96 / 101 40% 1 16.10.2026 -
Emiliano Ancheta Nacional Ativo 127 / 107 40% 1 15.10.2026 -
Ian Wisdom Sporting Cristal Ativo 90 / 112 40% 1 14.10.2026 -
Alexis Sinisterra Sol de America Ativo 71 / 95 40% 1 13.10.2026 -
Vasco Espejo Alianza Lima Ativo 78 / 84 40% 1 11.10.2026 -
Enzo Cabrera Danubio Ativo 118 / 122 40% 1 11.10.2026 -
Franco Martínez Artigas Ativo 96 / 87 40% 3 10.10.2026 -
Agustín Benítez Defensores Ativo 123 / 112 40% 1 10.10.2026 -
Agustín Ojeda Chaco For Ever Ativo 98 / 111 40% 2 09.10.2026 -
Tomás Castro Ponce Atlanta Ativo 110 / 113 40% 1 09.10.2026 -
Efraín Ustariz Real Salt Lake Ativo 89 / 111 40% 1 08.10.2026 -
Joaquín Trasante Danubio Ativo 116 / 105 40% 2 07.10.2026 -
Iván Chaves Patronato Ativo 88 / 105 40% 1 07.10.2026 -
Nahuel González Alvarado Ativo 95 / 110 40% 3 06.10.2026 -
Brian Calderara Chacarita Juniors Ativo 122 / 131 40% 1 06.10.2026 -
Aldhy Valencia Cesar Vallejo Ativo 69 / 80 40% 1 05.10.2026 -
Mauricio Lacerda Miramar Misiones Ativo 80 / 85 40% 1 04.10.2026 -
Gabriel Rincon Atletico Venezuela Ativo 111 / 118 40% 1 03.10.2026 -
Emiliano Jourdan Cerro Largo Ativo 99 / 98 40% 1 02.10.2026 -
Jairo Amaro Cerro Ativo 104 / 114 40% 1 02.10.2026 -
Santiago Direnna Miramar Misiones Ativo 64 / 80 40% 1 01.10.2026 -
Kevin Lewis Liverpool Montevideo Ativo 109 / 99 40% 1 01.10.2026 -
Elías Villar Nacional Ativo 77 / 85 40% 2 28.09.2026 -
Nicolás Rossi Juventud Ativo 115 / 112 40% 3 27.09.2026 -
Oscar Meza Portuguesa Ativo 97 / 82 40% 1 27.09.2026 -
Emiliano González Almagro Ativo 116 / 111 40% 1 26.09.2026 -
Santiago Roggero Gimnasia y Esgrima Ativo 101 / 119 40% 1 25.09.2026 -
Alejandro Gonzalez Atletico Venezuela Ativo 63 / 90 40% 1 25.09.2026 -
Isaac Méndez Central Espanol Ativo 108 / 94 40% 1 25.09.2026 -
Julio López Defensores Unidos Ativo 113 / 101 40% 1 25.09.2026 -
Tomás Ramírez Morón Ativo 110 / 116 40% 1 24.09.2026 -
Nicolás Fernandez Universidad de Chile Ativo 103 / 107 40% 2 23.09.2026 -
Francisco Facello Chacarita Juniors Ativo 102 / 106 40% 1 23.09.2026 -
Francisco Casanova Cerrito Ativo 106 / 93 40% 2 22.09.2026 -
Agustín Solari 12 de Octubre Ativo 89 / 92 40% 1 22.09.2026 -
Kevin Castro Bogota Ativo 94 / 89 40% 1 21.09.2026 -
Maico Quiroz Güemes Ativo 118 / 121 40% 2 20.09.2026 -
Agustín Olavarría Colon Ativo 96 / 103 40% 1 20.09.2026 -
Luis Barbat Cerrito Ativo 83 / 85 40% 1 20.09.2026 -
Franco Quinteros Estudiantes Ativo 119 / 111 40% 1 20.09.2026 -
Brahian Cuello Unión de Santa Fe Ativo 108 / 115 40% 1 19.09.2026 -
Jhojan Torres Santa Fe Ativo 115 / 108 40% 1 18.09.2026 -
Adrián Montañez Deportivo Tachira Ativo 93 / 112 40% 1 17.09.2026 -
Sebastián Giraldo Depor Ativo 74 / 89 40% 2 16.09.2026 -
Claudio Torres Huachipato Ativo 104 / 98 40% 1 16.09.2026 -
Dylan Lozano Aguilas Doradas Ativo 110 / 97 40% 1 16.09.2026 -
Gastón Vega Artigas Ativo 73 / 88 40% 1 14.09.2026 -
Luis Corredor Zulia Ativo 87 / 88 40% 1 14.09.2026 -
Juan Díaz Universidad Catolica Ativo 115 / 116 40% 1 12.09.2026 -
Gonzalo Gamarra Defensores Ativo 120 / 120 40% 1 12.09.2026 -
Antonio Martínez Cerro Porteno Ativo 90 / 89 40% 1 12.09.2026 -
Juan Esteban Gallego Once Caldas Ativo 82 / 96 40% 1 11.09.2026 -
Johan Madrid Sporting Cristal Ativo 116 / 117 40% 1 10.09.2026 -
Felipe Espinoza Iquique Ativo 85 / 88 40% 1 10.09.2026 -
Juan Camilo Mosquera Atletico Bucaramanga Ativo 117 / 128 40% 1 10.09.2026 -
Martín Ginzo Deportivo Maldonado Ativo 110 / 100 40% 1 10.09.2026 -
Gabriel Chocobar Oriental Ativo 91 / 105 40% 1 07.09.2026 -
Roameth Romaña Llaneros Ativo 106 / 88 40% 2 06.09.2026 -
Francisco Mongelos Sportivo Luqueno Ativo 83 / 91 40% 3 04.09.2026 -
Esteban Glellel Quilmes Ativo 115 / 114 40% 1 03.09.2026 -
Pedro González Cerro Largo Ativo 109 / 97 40% 1 03.09.2026 -
Agustín Requena Progreso Ativo 111 / 111 40% 1 02.09.2026 -
Vicente Lagos Santiago Wanderers Ativo 84 / 79 40% 1 01.09.2026 -
Nicolás Forastiero Deportivo Maldonado Ativo 92 / 94 40% 2 30.08.2026 -
Carlos Romaña Atletico Bucaramanga Ativo 108 / 99 40% 1 30.08.2026 -
Santiago Cuero Fortaleza CEIF Ativo 104 / 102 40% 1 24.08.2026 -
Aldair Gutiérrez Atletico Bucaramanga Ativo 122 / 126 40% 1 24.08.2026 -
Santiago Costa Albion Ativo 115 / 120 40% 1 23.08.2026 -
Cristián Díaz Antofagasta Ativo 83 / 106 40% 1 23.08.2026 -
Omar Mireles Veracruz Ativo 97 / 113 40% 1 20.08.2026 -
Rodrigo Melgarejo Nacional Ativo 105 / 84 40% 1 20.08.2026 -
Marber Suárez Zulia Ativo 84 / 84 40% 1 19.08.2026 -
Maximiliano Zelaya Miramar Misiones Ativo 81 / 107 40% 1 19.08.2026 -
Germán Peralta La Luz Ativo 104 / 94 40% 1 16.08.2026 -
Ángel Maciel Tacuarembo Ativo 104 / 106 40% 1 13.08.2026 -
Agustín Pérez Juventud Ativo 83 / 108 40% 1 11.08.2026 -
Leandro Umpiérrez Penarol Ativo 114 / 117 40% 1 10.08.2026 -
Adrián Vila Rampla Juniors Ativo 95 / 97 40% 1 10.08.2026 -
Yeferson Moreno Barranquilla Ativo 104 / 124 40% 1 09.08.2026 -
Christopher Montaña Portuguesa Ativo 88 / 92 40% 1 09.08.2026 -
Facundo Briñón Atenas Ativo 89 / 90 40% 1 08.08.2026 -
Nicolás Lara Tigres Ativo 107 / 112 40% 1 07.08.2026 -
Mateo Rivero Boston River Ativo 102 / 112 40% 1 06.08.2026 -
Alexander Hernández Racing Ativo 86 / 99 40% 1 06.08.2026 -
Lucas Bassadone Atenas Ativo 81 / 90 40% 1 05.08.2026 -
Pablo Cardona Cortulua Ativo 115 / 109 40% 1 05.08.2026 -
Joiner Moreno Real Cartagena Ativo 98 / 96 40% 1 03.08.2026 -
Juan González River Plate Ativo 75 / 71 40% 1 03.08.2026 -